sensor_id;sensor_type;location;lat;lon;timestamp;pressure;altitude;pressure_sealevel;temperature;humidity
21956;BME280;11142;49.930;8.606;2023-04-26T00:00:02;100230.88;;;4.23;100.00
21956;BME280;11142;49.930;8.606;2023-04-26T00:02:35;100226.84;;;4.16;100.00
21956;BME280;11142;49.930;8.606;2023-04-26T00:05:05;100221.94;;;4.10;100.00
21956;BME280;11142;49.930;8.606;2023-04-26T00:07:35;100225.06;;;3.94;100.00
21956;BME280;11142;49.930;8.606;2023-04-26T00:10:06;100232.09;;;3.89;100.00
21956;BME280;11142;49.930;8.606;2023-04-26T00:12:35;100239.03;;;3.87;100.00
21956;BME280;11142;49.930;8.606;2023-04-26T00:15:06;100229.56;;;3.87;100.00
21956;BME280;11142;49.930;8.606;2023-04-26T00:17:35;100238.09;;;3.89;100.00
21956;BME280;11142;49.930;8.606;2023-04-26T00:20:05;100234.91;;;3.81;100.00
21956;BME280;11142;49.930;8.606;2023-04-26T00:22:35;100223.25;;;3.72;100.00
21956;BME280;11142;49.930;8.606;2023-04-26T00:25:05;100229.97;;;3.77;100.00
21956;BME280;11142;49.930;8.606;2023-04-26T00:27:34;100232.66;;;3.72;100.00
21956;BME280;11142;49.930;8.606;2023-04-26T00:30:03;100228.50;;;3.68;100.00
21956;BME280;11142;49.930;8.606;2023-04-26T00:32:32;100234.91;;;3.81;100.00
21956;BME280;11142;49.930;8.606;2023-04-26T00:35:05;100232.09;;;3.64;100.00
21956;BME280;11142;49.930;8.606;2023-04-26T00:37:33;100236.28;;;3.66;100.00
21956;BME280;11142;49.930;8.606;2023-04-26T00:40:01;100234.38;;;3.71;100.00
21956;BME280;11142;49.930;8.606;2023-04-26T00:42:32;100237.03;;;3.70;100.00
21956;BME280;11142;49.930;8.606;2023-04-26T00:45:03;100233.72;;;3.66;100.00
21956;BME280;11142;49.930;8.606;2023-04-26T00:47:33;100233.09;;;3.58;100.00
21956;BME280;11142;49.930;8.606;2023-04-26T00:50:02;100235.22;;;3.46;100.00
21956;BME280;11142;49.930;8.606;2023-04-26T00:52:31;100237.13;;;3.41;100.00
21956;BME280;11142;49.930;8.606;2023-04-26T00:54:59;100238.19;;;3.34;100.00
21956;BME280;11142;49.930;8.606;2023-04-26T00:57:29;100235.03;;;3.26;100.00
21956;BME280;11142;49.930;8.606;2023-04-26T00:59:58;100234.59;;;3.13;100.00
21956;BME280;11142;49.930;8.606;2023-04-26T01:02:27;100236.09;;;3.20;100.00
21956;BME280;11142;49.930;8.606;2023-04-26T01:04:57;100240.41;;;3.18;100.00
21956;BME280;11142;49.930;8.606;2023-04-26T01:07:25;100241.22;;;3.20;100.00
21956;BME280;11142;49.930;8.606;2023-04-26T01:09:55;100243.31;;;3.07;100.00
21956;BME280;11142;49.930;8.606;2023-04-26T01:12:27;100242.19;;;2.88;100.00
21956;BME280;11142;49.930;8.606;2023-04-26T01:14:56;100237.72;;;2.95;100.00
21956;BME280;11142;49.930;8.606;2023-04-26T01:17:24;100231.69;;;2.96;100.00
21956;BME280;11142;49.930;8.606;2023-04-26T01:19:55;100233.19;;;2.74;100.00
21956;BME280;11142;49.930;8.606;2023-04-26T01:22:25;100223.28;;;2.63;100.00
21956;BME280;11142;49.930;8.606;2023-04-26T01:24:56;100227.75;;;2.56;100.00
21956;BME280;11142;49.930;8.606;2023-04-26T01:27:24;100222.47;;;2.61;100.00
21956;BME280;11142;49.930;8.606;2023-04-26T01:29:53;100220.94;;;2.55;100.00
21956;BME280;11142;49.930;8.606;2023-04-26T01:32:22;100217.53;;;2.55;100.00
21956;BME280;11142;49.930;8.606;2023-04-26T01:34:50;100216.66;;;2.56;100.00
21956;BME280;11142;49.930;8.606;2023-04-26T01:37:18;100214.88;;;2.58;100.00
21956;BME280;11142;49.930;8.606;2023-04-26T01:39:47;100219.47;;;2.47;100.00
21956;BME280;11142;49.930;8.606;2023-04-26T01:42:19;100228.00;;;2.47;100.00
21956;BME280;11142;49.930;8.606;2023-04-26T01:44:48;100223.69;;;2.48;100.00
21956;BME280;11142;49.930;8.606;2023-04-26T01:47:16;100220.28;;;2.49;100.00
21956;BME280;11142;49.930;8.606;2023-04-26T01:49:44;100225.47;;;2.46;100.00
21956;BME280;11142;49.930;8.606;2023-04-26T01:52:13;100234.88;;;2.45;100.00
21956;BME280;11142;49.930;8.606;2023-04-26T01:54:41;100228.88;;;2.46;100.00
21956;BME280;11142;49.930;8.606;2023-04-26T01:57:09;100227.00;;;2.53;100.00
21956;BME280;11142;49.930;8.606;2023-04-26T01:59:39;100232.19;;;2.50;100.00
21956;BME280;11142;49.930;8.606;2023-04-26T02:02:07;100232.31;;;2.45;100.00
21956;BME280;11142;49.930;8.606;2023-04-26T02:04:37;100234.94;;;2.44;100.00
21956;BME280;11142;49.930;8.606;2023-04-26T02:07:05;100234.84;;;2.47;100.00
21956;BME280;11142;49.930;8.606;2023-04-26T02:09:44;100230.44;;;2.52;100.00
21956;BME280;11142;49.930;8.606;2023-04-26T02:12:13;100234.59;;;2.56;100.00
21956;BME280;11142;49.930;8.606;2023-04-26T02:14:43;100236.13;;;2.61;100.00
21956;BME280;11142;49.930;8.606;2023-04-26T02:17:11;100233.34;;;2.69;100.00
21956;BME280;11142;49.930;8.606;2023-04-26T02:19:39;100236.97;;;2.62;100.00
21956;BME280;11142;49.930;8.606;2023-04-26T02:22:08;100242.66;;;2.72;100.00
21956;BME280;11142;49.930;8.606;2023-04-26T02:24:39;100235.09;;;2.67;100.00
21956;BME280;11142;49.930;8.606;2023-04-26T02:27:07;100230.13;;;2.62;100.00
21956;BME280;11142;49.930;8.606;2023-04-26T02:29:35;100230.16;;;2.61;100.00
21956;BME280;11142;49.930;8.606;2023-04-26T02:32:12;100230.97;;;2.63;100.00
21956;BME280;11142;49.930;8.606;2023-04-26T02:34:41;100238.69;;;2.61;100.00
21956;BME280;11142;49.930;8.606;2023-04-26T02:37:10;100239.72;;;2.56;100.00
21956;BME280;11142;49.930;8.606;2023-04-26T02:39:38;100242.00;;;2.65;100.00
21956;BME280;11142;49.930;8.606;2023-04-26T02:42:07;100248.19;;;2.58;100.00
21956;BME280;11142;49.930;8.606;2023-04-26T02:44:36;100243.19;;;2.53;100.00
21956;BME280;11142;49.930;8.606;2023-04-26T02:47:06;100237.50;;;2.44;100.00
21956;BME280;11142;49.930;8.606;2023-04-26T02:49:37;100234.13;;;2.42;100.00
21956;BME280;11142;49.930;8.606;2023-04-26T02:52:05;100227.63;;;2.30;100.00
21956;BME280;11142;49.930;8.606;2023-04-26T02:54:36;100226.13;;;2.23;100.00
21956;BME280;11142;49.930;8.606;2023-04-26T02:57:04;100225.34;;;2.20;100.00
21956;BME280;11142;49.930;8.606;2023-04-26T02:59:34;100222.88;;;2.17;100.00
21956;BME280;11142;49.930;8.606;2023-04-26T03:02:02;100218.56;;;2.19;100.00
21956;BME280;11142;49.930;8.606;2023-04-26T03:04:31;100223.63;;;2.20;100.00
21956;BME280;11142;49.930;8.606;2023-04-26T03:07:01;100227.16;;;2.16;100.00
21956;BME280;11142;49.930;8.606;2023-04-26T03:09:29;100222.97;;;2.13;100.00
21956;BME280;11142;49.930;8.606;2023-04-26T03:12:00;100225.44;;;2.17;100.00
21956;BME280;11142;49.930;8.606;2023-04-26T03:14:29;100216.16;;;2.12;100.00
21956;BME280;11142;49.930;8.606;2023-04-26T03:17:02;100222.03;;;2.16;100.00
21956;BME280;11142;49.930;8.606;2023-04-26T03:19:32;100221.16;;;2.17;100.00
21956;BME280;11142;49.930;8.606;2023-04-26T03:22:03;100222.94;;;2.15;100.00
21956;BME280;11142;49.930;8.606;2023-04-26T03:24:32;100221.94;;;2.19;100.00
21956;BME280;11142;49.930;8.606;2023-04-26T03:27:00;100221.16;;;2.17;100.00
21956;BME280;11142;49.930;8.606;2023-04-26T03:29:28;100219.34;;;2.21;100.00
21956;BME280;11142;49.930;8.606;2023-04-26T03:31:56;100214.41;;;2.14;100.00
21956;BME280;11142;49.930;8.606;2023-04-26T03:34:24;100212.81;;;2.10;100.00
21956;BME280;11142;49.930;8.606;2023-04-26T03:36:53;100218.97;;;2.03;100.00
21956;BME280;11142;49.930;8.606;2023-04-26T03:39:22;100221.53;;;2.03;100.00
21956;BME280;11142;49.930;8.606;2023-04-26T03:41:51;100219.03;;;2.02;100.00
21956;BME280;11142;49.930;8.606;2023-04-26T03:44:19;100222.34;;;2.05;100.00
21956;BME280;11142;49.930;8.606;2023-04-26T03:46:47;100229.09;;;2.08;100.00
21956;BME280;11142;49.930;8.606;2023-04-26T03:49:16;100225.41;;;2.18;100.00
21956;BME280;11142;49.930;8.606;2023-04-26T03:51:45;100229.78;;;2.13;100.00
21956;BME280;11142;49.930;8.606;2023-04-26T03:54:14;100224.91;;;2.05;100.00
21956;BME280;11142;49.930;8.606;2023-04-26T03:56:44;100226.94;;;1.93;100.00
21956;BME280;11142;49.930;8.606;2023-04-26T03:59:13;100227.09;;;1.87;100.00
21956;BME280;11142;49.930;8.606;2023-04-26T04:01:41;100226.41;;;1.80;100.00
21956;BME280;11142;49.930;8.606;2023-04-26T04:04:10;100228.91;;;1.83;100.00
21956;BME280;11142;49.930;8.606;2023-04-26T04:06:42;100230.72;;;1.78;100.00
21956;BME280;11142;49.930;8.606;2023-04-26T04:09:10;100219.63;;;1.79;100.00
21956;BME280;11142;49.930;8.606;2023-04-26T04:11:40;100223.78;;;1.83;100.00
21956;BME280;11142;49.930;8.606;2023-04-26T04:14:11;100219.44;;;1.87;100.00
21956;BME280;11142;49.930;8.606;2023-04-26T04:16:39;100221.84;;;1.91;100.00
21956;BME280;11142;49.930;8.606;2023-04-26T04:19:10;100221.75;;;1.94;100.00
21956;BME280;11142;49.930;8.606;2023-04-26T04:21:41;100220.84;;;1.97;100.00
21956;BME280;11142;49.930;8.606;2023-04-26T04:24:09;100225.16;;;1.95;100.00
21956;BME280;11142;49.930;8.606;2023-04-26T04:26:39;100211.28;;;2.03;100.00
21956;BME280;11142;49.930;8.606;2023-04-26T04:29:08;100220.31;;;2.17;100.00
21956;BME280;11142;49.930;8.606;2023-04-26T04:31:39;100222.44;;;2.32;100.00
21956;BME280;11142;49.930;8.606;2023-04-26T04:34:08;100224.44;;;2.53;100.00
21956;BME280;11142;49.930;8.606;2023-04-26T04:36:40;100226.63;;;2.65;100.00
21956;BME280;11142;49.930;8.606;2023-04-26T04:39:09;100234.81;;;2.78;100.00
21956;BME280;11142;49.930;8.606;2023-04-26T04:41:45;100237.63;;;2.98;100.00
21956;BME280;11142;49.930;8.606;2023-04-26T04:44:17;100239.47;;;3.20;100.00
21956;BME280;11142;49.930;8.606;2023-04-26T04:46:47;100248.13;;;3.44;100.00
21956;BME280;11142;49.930;8.606;2023-04-26T04:49:16;100243.88;;;3.69;100.00
21956;BME280;11142;49.930;8.606;2023-04-26T04:51:47;100248.03;;;3.98;100.00
21956;BME280;11142;49.930;8.606;2023-04-26T04:54:16;100249.50;;;4.30;100.00
21956;BME280;11142;49.930;8.606;2023-04-26T04:56:46;100256.09;;;4.60;100.00
21956;BME280;11142;49.930;8.606;2023-04-26T04:59:15;100258.50;;;4.88;100.00
21956;BME280;11142;49.930;8.606;2023-04-26T05:01:45;100260.06;;;5.14;100.00
21956;BME280;11142;49.930;8.606;2023-04-26T05:04:15;100262.53;;;5.39;100.00
21956;BME280;11142;49.930;8.606;2023-04-26T05:06:44;100264.59;;;5.72;100.00
21956;BME280;11142;49.930;8.606;2023-04-26T05:09:13;100261.34;;;6.09;100.00
21956;BME280;11142;49.930;8.606;2023-04-26T05:11:43;100270.94;;;6.46;100.00
21956;BME280;11142;49.930;8.606;2023-04-26T05:14:12;100274.31;;;6.85;100.00
21956;BME280;11142;49.930;8.606;2023-04-26T05:16:40;100283.94;;;7.19;100.00
21956;BME280;11142;49.930;8.606;2023-04-26T05:19:09;100295.50;;;7.48;100.00
21956;BME280;11142;49.930;8.606;2023-04-26T05:21:41;100302.91;;;7.73;100.00
21956;BME280;11142;49.930;8.606;2023-04-26T05:24:10;100309.22;;;8.01;100.00
21956;BME280;11142;49.930;8.606;2023-04-26T05:26:39;100310.81;;;8.38;100.00
21956;BME280;11142;49.930;8.606;2023-04-26T05:29:27;100305.75;;;8.70;100.00
21956;BME280;11142;49.930;8.606;2023-04-26T05:31:59;100306.31;;;9.07;100.00
21956;BME280;11142;49.930;8.606;2023-04-26T05:34:53;100317.50;;;9.55;100.00
21956;BME280;11142;49.930;8.606;2023-04-26T05:37:24;100316.94;;;9.95;100.00
21956;BME280;11142;49.930;8.606;2023-04-26T05:39:51;100319.66;;;10.08;100.00
21956;BME280;11142;49.930;8.606;2023-04-26T05:42:20;100323.16;;;10.23;92.58
21956;BME280;11142;49.930;8.606;2023-04-26T05:44:48;100329.38;;;10.20;91.21
21956;BME280;11142;49.930;8.606;2023-04-26T05:47:16;100329.97;;;10.39;88.72
21956;BME280;11142;49.930;8.606;2023-04-26T05:49:45;100321.84;;;10.74;88.13
21956;BME280;11142;49.930;8.606;2023-04-26T05:52:13;100323.13;;;10.95;84.98
21956;BME280;11142;49.930;8.606;2023-04-26T05:54:43;100323.88;;;10.97;84.31
21956;BME280;11142;49.930;8.606;2023-04-26T05:57:11;100329.91;;;10.83;82.53
21956;BME280;11142;49.930;8.606;2023-04-26T05:59:39;100331.97;;;10.34;82.46
21956;BME280;11142;49.930;8.606;2023-04-26T06:02:07;100337.16;;;10.04;86.80
21956;BME280;11142;49.930;8.606;2023-04-26T06:04:35;100349.69;;;10.56;85.12
21956;BME280;11142;49.930;8.606;2023-04-26T06:07:10;100353.00;;;11.16;84.67
21956;BME280;11142;49.930;8.606;2023-04-26T06:09:38;100360.03;;;10.86;77.91
21956;BME280;11142;49.930;8.606;2023-04-26T06:12:08;100358.63;;;9.45;85.10
21956;BME280;11142;49.930;8.606;2023-04-26T06:14:39;100364.88;;;7.73;100.00
21956;BME280;11142;49.930;8.606;2023-04-26T06:17:13;100373.19;;;6.66;100.00
21956;BME280;11142;49.930;8.606;2023-04-26T06:19:41;100360.44;;;6.43;100.00
21956;BME280;11142;49.930;8.606;2023-04-26T06:22:09;100359.47;;;7.23;100.00
21956;BME280;11142;49.930;8.606;2023-04-26T06:24:37;100361.69;;;7.30;100.00
21956;BME280;11142;49.930;8.606;2023-04-26T06:27:05;100363.88;;;6.82;100.00
21956;BME280;11142;49.930;8.606;2023-04-26T06:29:36;100363.97;;;7.55;100.00
21956;BME280;11142;49.930;8.606;2023-04-26T06:32:05;100364.19;;;7.69;100.00
21956;BME280;11142;49.930;8.606;2023-04-26T06:34:33;100370.16;;;7.88;100.00
21956;BME280;11142;49.930;8.606;2023-04-26T06:37:04;100362.63;;;8.87;100.00
21956;BME280;11142;49.930;8.606;2023-04-26T06:39:35;100363.22;;;9.40;100.00
21956;BME280;11142;49.930;8.606;2023-04-26T06:42:04;100368.16;;;8.64;100.00
21956;BME280;11142;49.930;8.606;2023-04-26T06:45:10;100374.75;;;8.18;100.00
21956;BME280;11142;49.930;8.606;2023-04-26T06:47:39;100373.09;;;8.51;100.00
21956;BME280;11142;49.930;8.606;2023-04-26T06:50:08;100375.88;;;7.40;100.00
21956;BME280;11142;49.930;8.606;2023-04-26T06:52:36;100368.00;;;7.79;100.00
21956;BME280;11142;49.930;8.606;2023-04-26T06:55:05;100365.94;;;8.73;100.00
21956;BME280;11142;49.930;8.606;2023-04-26T06:57:33;100360.13;;;10.10;99.92
21956;BME280;11142;49.930;8.606;2023-04-26T07:00:01;100361.78;;;11.83;85.56
21956;BME280;11142;49.930;8.606;2023-04-26T07:02:31;100359.78;;;12.77;72.25
21956;BME280;11142;49.930;8.606;2023-04-26T07:05:00;100365.63;;;14.03;63.75
21956;BME280;11142;49.930;8.606;2023-04-26T07:07:29;100357.34;;;14.09;56.81
21956;BME280;11142;49.930;8.606;2023-04-26T07:09:58;100361.69;;;14.32;57.08
21956;BME280;11142;49.930;8.606;2023-04-26T07:12:26;100370.31;;;12.24;60.24
21956;BME280;11142;49.930;8.606;2023-04-26T07:14:56;100358.38;;;13.22;61.31
21956;BME280;11142;49.930;8.606;2023-04-26T07:17:24;100362.38;;;14.23;55.34
21956;BME280;11142;49.930;8.606;2023-04-26T07:19:54;100357.72;;;14.15;49.95
21956;BME280;11142;49.930;8.606;2023-04-26T07:22:22;100363.66;;;13.70;53.04
21956;BME280;11142;49.930;8.606;2023-04-26T07:24:50;100367.25;;;13.20;54.85
21956;BME280;11142;49.930;8.606;2023-04-26T07:27:18;100371.91;;;13.40;53.58
21956;BME280;11142;49.930;8.606;2023-04-26T07:29:46;100372.00;;;13.75;55.01
21956;BME280;11142;49.930;8.606;2023-04-26T07:32:15;100363.78;;;14.51;53.48
21956;BME280;11142;49.930;8.606;2023-04-26T07:34:44;100362.91;;;15.07;49.98
21956;BME280;11142;49.930;8.606;2023-04-26T07:37:14;100361.03;;;14.87;49.27
21956;BME280;11142;49.930;8.606;2023-04-26T07:39:42;100361.59;;;15.24;48.79
21956;BME280;11142;49.930;8.606;2023-04-26T07:42:10;100366.03;;;16.62;44.86
21956;BME280;11142;49.930;8.606;2023-04-26T07:44:39;100359.38;;;16.78;45.13
21956;BME280;11142;49.930;8.606;2023-04-26T07:47:10;100372.28;;;16.49;44.67
21956;BME280;11142;49.930;8.606;2023-04-26T07:49:39;100360.50;;;16.76;43.65
21956;BME280;11142;49.930;8.606;2023-04-26T07:52:07;100360.72;;;15.79;45.10
21956;BME280;11142;49.930;8.606;2023-04-26T07:54:36;100365.38;;;15.64;45.20
21956;BME280;11142;49.930;8.606;2023-04-26T07:57:06;100358.22;;;16.09;47.25
21956;BME280;11142;49.930;8.606;2023-04-26T07:59:34;100367.78;;;17.33;44.06
21956;BME280;11142;49.930;8.606;2023-04-26T08:02:02;100368.03;;;17.79;44.03
21956;BME280;11142;49.930;8.606;2023-04-26T08:04:32;100368.25;;;15.39;43.97
21956;BME280;11142;49.930;8.606;2023-04-26T08:07:00;100366.41;;;14.40;47.01
21956;BME280;11142;49.930;8.606;2023-04-26T08:09:29;100360.06;;;12.86;53.65
21956;BME280;11142;49.930;8.606;2023-04-26T08:11:59;100364.38;;;13.48;52.85
21956;BME280;11142;49.930;8.606;2023-04-26T08:14:27;100362.66;;;15.10;47.56
21956;BME280;11142;49.930;8.606;2023-04-26T08:16:56;100364.69;;;15.07;44.32
21956;BME280;11142;49.930;8.606;2023-04-26T08:19:24;100363.97;;;14.36;51.35
21956;BME280;11142;49.930;8.606;2023-04-26T08:21:56;100363.28;;;16.22;45.20
21956;BME280;11142;49.930;8.606;2023-04-26T08:24:24;100366.38;;;17.59;43.30
21956;BME280;11142;49.930;8.606;2023-04-26T08:26:52;100362.50;;;19.15;38.48
21956;BME280;11142;49.930;8.606;2023-04-26T08:29:23;100362.47;;;19.70;38.00
21956;BME280;11142;49.930;8.606;2023-04-26T08:31:52;100376.75;;;20.30;35.94
21956;BME280;11142;49.930;8.606;2023-04-26T08:34:20;100371.75;;;21.55;34.13
21956;BME280;11142;49.930;8.606;2023-04-26T08:36:48;100368.56;;;22.18;31.31
21956;BME280;11142;49.930;8.606;2023-04-26T08:39:17;100369.94;;;23.09;32.32
21956;BME280;11142;49.930;8.606;2023-04-26T08:41:48;100364.44;;;23.19;29.29
21956;BME280;11142;49.930;8.606;2023-04-26T08:44:16;100367.22;;;23.34;29.43
21956;BME280;11142;49.930;8.606;2023-04-26T08:46:59;100364.69;;;24.02;30.19
21956;BME280;11142;49.930;8.606;2023-04-26T08:49:30;100373.41;;;24.70;29.83
21956;BME280;11142;49.930;8.606;2023-04-26T08:52:04;100374.53;;;24.76;28.66
21956;BME280;11142;49.930;8.606;2023-04-26T08:54:35;100361.81;;;25.30;27.22
21956;BME280;11142;49.930;8.606;2023-04-26T08:57:03;100358.06;;;25.24;26.73
21956;BME280;11142;49.930;8.606;2023-04-26T08:59:33;100359.13;;;24.57;25.58
21956;BME280;11142;49.930;8.606;2023-04-26T09:02:05;100354.09;;;24.62;27.97
21956;BME280;11142;49.930;8.606;2023-04-26T09:04:33;100356.50;;;24.34;26.82
21956;BME280;11142;49.930;8.606;2023-04-26T09:07:02;100344.94;;;23.59;28.19
21956;BME280;11142;49.930;8.606;2023-04-26T09:09:35;100346.69;;;23.36;28.13
21956;BME280;11142;49.930;8.606;2023-04-26T09:12:08;100342.56;;;22.86;28.59
21956;BME280;11142;49.930;8.606;2023-04-26T09:14:37;100337.50;;;22.12;29.62
21956;BME280;11142;49.930;8.606;2023-04-26T09:17:07;100340.13;;;22.20;29.89
21956;BME280;11142;49.930;8.606;2023-04-26T09:19:50;100333.38;;;21.93;29.99
21956;BME280;11142;49.930;8.606;2023-04-26T09:22:26;100334.13;;;21.61;30.65
21956;BME280;11142;49.930;8.606;2023-04-26T09:24:54;100335.19;;;18.89;31.69
21956;BME280;11142;49.930;8.606;2023-04-26T09:27:30;100330.59;;;18.16;34.12
21956;BME280;11142;49.930;8.606;2023-04-26T09:30:02;100341.09;;;18.35;33.20
21956;BME280;11142;49.930;8.606;2023-04-26T09:32:46;100339.44;;;17.27;35.74
21956;BME280;11142;49.930;8.606;2023-04-26T09:35:20;100340.00;;;16.90;36.99
21956;BME280;11142;49.930;8.606;2023-04-26T09:37:52;100333.34;;;17.57;38.01
21956;BME280;11142;49.930;8.606;2023-04-26T09:40:26;100338.34;;;16.27;36.69
21956;BME280;11142;49.930;8.606;2023-04-26T09:42:58;100331.47;;;16.98;37.66
21956;BME280;11142;49.930;8.606;2023-04-26T09:45:26;100331.75;;;15.26;37.63
21956;BME280;11142;49.930;8.606;2023-04-26T09:47:56;100337.50;;;15.09;38.23
21956;BME280;11142;49.930;8.606;2023-04-26T09:50:38;100331.69;;;14.83;38.94
21956;BME280;11142;49.930;8.606;2023-04-26T09:53:06;100324.16;;;16.71;36.68
21956;BME280;11142;49.930;8.606;2023-04-26T09:55:34;100318.03;;;18.19;34.45
21956;BME280;11142;49.930;8.606;2023-04-26T09:58:08;100330.72;;;18.04;34.26
21956;BME280;11142;49.930;8.606;2023-04-26T10:00:37;100322.75;;;19.36;33.55
21956;BME280;11142;49.930;8.606;2023-04-26T10:03:07;100321.34;;;17.83;35.72
21956;BME280;11142;49.930;8.606;2023-04-26T10:05:36;100326.13;;;15.64;38.07
21956;BME280;11142;49.930;8.606;2023-04-26T10:08:05;100316.66;;;16.87;36.23
21956;BME280;11142;49.930;8.606;2023-04-26T10:10:33;100321.63;;;17.99;34.90
21956;BME280;11142;49.930;8.606;2023-04-26T10:13:02;100323.28;;;17.12;36.48
21956;BME280;11142;49.930;8.606;2023-04-26T10:15:29;100325.00;;;16.10;39.05
21956;BME280;11142;49.930;8.606;2023-04-26T10:17:58;100318.59;;;14.95;40.67
21956;BME280;11142;49.930;8.606;2023-04-26T10:20:28;100313.81;;;14.44;40.28
21956;BME280;11142;49.930;8.606;2023-04-26T10:22:57;100325.34;;;12.22;45.37
21956;BME280;11142;49.930;8.606;2023-04-26T10:25:36;100324.75;;;12.44;45.37
21956;BME280;11142;49.930;8.606;2023-04-26T10:28:04;100319.38;;;14.05;43.17
21956;BME280;11142;49.930;8.606;2023-04-26T10:30:32;100318.38;;;16.47;38.65
21956;BME280;11142;49.930;8.606;2023-04-26T10:36:06;100315.78;;;17.08;36.59
21956;BME280;11142;49.930;8.606;2023-04-26T10:38:38;100310.53;;;19.44;34.52
21956;BME280;11142;49.930;8.606;2023-04-26T10:43:52;100300.34;;;15.60;38.80
21956;BME280;11142;49.930;8.606;2023-04-26T10:46:34;100295.41;;;15.77;38.75
21956;BME280;11142;49.930;8.606;2023-04-26T10:49:16;100303.03;;;16.93;37.56
21956;BME280;11142;49.930;8.606;2023-04-26T10:54:45;100301.22;;;19.85;33.18
21956;BME280;11142;49.930;8.606;2023-04-26T10:57:13;100300.66;;;22.02;31.89
21956;BME280;11142;49.930;8.606;2023-04-26T11:05:07;100300.09;;;30.39;20.42
21956;BME280;11142;49.930;8.606;2023-04-26T11:07:35;100303.63;;;32.83;16.70
21956;BME280;11142;49.930;8.606;2023-04-26T11:10:08;100303.28;;;32.91;17.79
21956;BME280;11142;49.930;8.606;2023-04-26T11:15:23;100297.00;;;31.45;18.88
21956;BME280;11142;49.930;8.606;2023-04-26T11:17:51;100290.03;;;30.35;18.91
21956;BME280;11142;49.930;8.606;2023-04-26T11:20:19;100282.94;;;22.43;24.73
21956;BME280;11142;49.930;8.606;2023-04-26T11:22:47;100284.41;;;24.16;26.16
21956;BME280;11142;49.930;8.606;2023-04-26T11:25:17;100283.72;;;25.46;21.70
21956;BME280;11142;49.930;8.606;2023-04-26T11:27:46;100278.25;;;25.68;21.36
21956;BME280;11142;49.930;8.606;2023-04-26T11:30:14;100273.38;;;22.18;25.23
21956;BME280;11142;49.930;8.606;2023-04-26T11:32:45;100264.97;;;25.68;22.10
21956;BME280;11142;49.930;8.606;2023-04-26T11:35:13;100262.88;;;26.75;21.15
21956;BME280;11142;49.930;8.606;2023-04-26T11:37:44;100252.59;;;23.48;24.81
21956;BME280;11142;49.930;8.606;2023-04-26T11:40:12;100260.41;;;27.08;21.77
21956;BME280;11142;49.930;8.606;2023-04-26T11:42:44;100263.44;;;29.52;19.22
21956;BME280;11142;49.930;8.606;2023-04-26T11:45:14;100264.19;;;31.01;19.01
21956;BME280;11142;49.930;8.606;2023-04-26T11:47:42;100257.94;;;30.03;19.01
21956;BME280;11142;49.930;8.606;2023-04-26T11:50:11;100270.31;;;31.91;17.81
21956;BME280;11142;49.930;8.606;2023-04-26T11:52:39;100265.28;;;32.88;17.12
21956;BME280;11142;49.930;8.606;2023-04-26T11:55:08;100266.44;;;33.93;15.87
21956;BME280;11142;49.930;8.606;2023-04-26T11:57:37;100274.44;;;35.74;14.92
21956;BME280;11142;49.930;8.606;2023-04-26T12:00:07;100280.97;;;38.80;12.96
21956;BME280;11142;49.930;8.606;2023-04-26T12:02:37;100273.56;;;40.12;12.54
21956;BME280;11142;49.930;8.606;2023-04-26T12:05:06;100270.75;;;39.16;12.25
21956;BME280;11142;49.930;8.606;2023-04-26T12:07:35;100267.50;;;39.09;12.84
21956;BME280;11142;49.930;8.606;2023-04-26T12:10:12;100273.94;;;38.69;13.08
21956;BME280;11142;49.930;8.606;2023-04-26T12:12:44;100253.53;;;33.34;15.68
21956;BME280;11142;49.930;8.606;2023-04-26T12:15:15;100256.03;;;36.02;15.01
21956;BME280;11142;49.930;8.606;2023-04-26T12:17:50;100265.47;;;36.99;14.46
21956;BME280;11142;49.930;8.606;2023-04-26T12:20:25;100257.34;;;36.42;14.83
21956;BME280;11142;49.930;8.606;2023-04-26T12:22:59;100250.22;;;31.94;16.22
21956;BME280;11142;49.930;8.606;2023-04-26T12:25:27;100232.47;;;28.10;19.75
21956;BME280;11142;49.930;8.606;2023-04-26T12:27:56;100228.91;;;22.38;24.00
21956;BME280;11142;49.930;8.606;2023-04-26T12:30:26;100228.97;;;21.97;25.30
21956;BME280;11142;49.930;8.606;2023-04-26T12:33:00;100228.31;;;24.48;22.94
21956;BME280;11142;49.930;8.606;2023-04-26T12:35:42;100227.97;;;28.17;20.88
21956;BME280;11142;49.930;8.606;2023-04-26T12:38:10;100220.78;;;23.48;23.53
21956;BME280;11142;49.930;8.606;2023-04-26T12:40:39;100218.56;;;21.96;24.67
21956;BME280;11142;49.930;8.606;2023-04-26T12:43:08;100223.50;;;26.29;21.54
21956;BME280;11142;49.930;8.606;2023-04-26T12:45:37;100225.41;;;22.37;24.39
21956;BME280;11142;49.930;8.606;2023-04-26T12:48:05;100227.69;;;18.76;28.78
21956;BME280;11142;49.930;8.606;2023-04-26T12:50:33;100224.53;;;22.53;26.54
21956;BME280;11142;49.930;8.606;2023-04-26T12:53:01;100221.47;;;23.50;25.48
21956;BME280;11142;49.930;8.606;2023-04-26T12:55:30;100227.88;;;25.24;22.68
21956;BME280;11142;49.930;8.606;2023-04-26T12:57:58;100225.44;;;29.06;19.53
21956;BME280;11142;49.930;8.606;2023-04-26T13:00:27;100232.66;;;30.61;18.37
21956;BME280;11142;49.930;8.606;2023-04-26T13:02:56;100227.88;;;29.77;18.40
21956;BME280;11142;49.930;8.606;2023-04-26T13:05:25;100231.41;;;31.71;17.57
21956;BME280;11142;49.930;8.606;2023-04-26T13:07:55;100229.16;;;27.62;20.38
21956;BME280;11142;49.930;8.606;2023-04-26T13:10:23;100220.59;;;23.26;23.37
21956;BME280;11142;49.930;8.606;2023-04-26T13:12:51;100214.44;;;21.93;26.25
21956;BME280;11142;49.930;8.606;2023-04-26T13:15:20;100215.94;;;20.55;26.85
21956;BME280;11142;49.930;8.606;2023-04-26T13:17:50;100219.25;;;25.58;23.70
21956;BME280;11142;49.930;8.606;2023-04-26T13:20:20;100226.66;;;30.65;19.30